createdAt,value
2019-05-22T00:00:03.088Z,309.63
2019-05-22T00:00:08.091Z,309.63
2019-05-22T00:00:14.578Z,310.18
2019-05-22T00:00:18.092Z,310.18
2019-05-22T00:00:23.091Z,310.68
2019-05-22T00:00:28.092Z,310.68
2019-05-22T00:00:33.092Z,311.12
2019-05-22T00:00:38.092Z,311.12
2019-05-22T00:00:43.103Z,311.52
2019-05-22T00:00:48.096Z,311.52
2019-05-22T00:00:53.337Z,311.87
2019-05-22T00:00:58.351Z,311.87
2019-05-22T00:01:03.101Z,307.88
2019-05-22T00:01:08.099Z,307.88
2019-05-22T00:01:13.100Z,308.62
2019-05-22T00:01:18.102Z,308.62
2019-05-22T00:01:23.327Z,309.28
2019-05-22T00:01:28.591Z,309.28
2019-05-22T00:01:33.537Z,309.87
2019-05-22T00:01:38.106Z,309.87
2019-05-22T00:01:43.107Z,306.00
2019-05-22T00:01:48.107Z,306.00
2019-05-22T00:01:53.161Z,302.41
2019-05-22T00:01:58.108Z,302.41
2019-05-22T00:02:03.121Z,303.73
2019-05-22T00:02:08.121Z,303.73
2019-05-22T00:02:13.111Z,304.92
2019-05-22T00:02:18.114Z,304.92
2019-05-22T00:02:23.120Z,305.97
2019-05-22T00:02:28.118Z,305.97
2019-05-22T00:02:33.118Z,306.91
2019-05-22T00:02:38.116Z,306.91
2019-05-22T00:02:43.117Z,307.76
2019-05-22T00:02:48.119Z,307.76
2019-05-22T00:02:53.119Z,308.51
2019-05-22T00:02:58.134Z,308.51
2019-05-22T00:03:03.122Z,304.73
2019-05-22T00:03:08.123Z,304.73
2019-05-22T00:03:13.124Z,301.24
2019-05-22T00:03:18.366Z,301.24
2019-05-22T00:03:23.829Z,302.69
2019-05-22T00:03:28.228Z,302.69
2019-05-22T00:03:33.127Z,303.98
2019-05-22T00:03:38.128Z,303.98
2019-05-22T00:03:43.128Z,300.55
2019-05-22T00:03:48.129Z,300.55
2019-05-22T00:03:53.130Z,297.41
2019-05-22T00:03:58.132Z,297.41
2019-05-22T00:04:03.134Z,299.27
2019-05-22T00:04:08.134Z,299.27
2019-05-22T00:04:13.138Z,296.24
2019-05-22T00:04:18.137Z,296.24
2019-05-22T00:04:23.615Z,293.50
2019-05-22T00:04:28.138Z,293.50
2019-05-22T00:04:33.533Z,291.03
2019-05-22T00:04:38.139Z,291.03
2019-05-22T00:04:43.156Z,293.55
2019-05-22T00:04:48.152Z,293.55
2019-05-22T00:04:53.147Z,295.81
2019-05-22T00:04:58.327Z,295.81
2019-05-22T00:05:03.145Z,297.84
2019-05-22T00:05:08.145Z,297.84
2019-05-22T00:05:13.196Z,294.95
2019-05-22T00:05:18.150Z,294.95
2019-05-22T00:05:23.149Z,292.33
2019-05-22T00:05:28.149Z,292.33
2019-05-22T00:05:33.151Z,294.72
2019-05-22T00:05:38.152Z,294.72
2019-05-22T00:05:43.154Z,296.86
2019-05-22T00:05:48.153Z,296.86
2019-05-22T00:05:53.295Z,298.78
2019-05-22T00:05:58.155Z,298.78
2019-05-22T00:06:03.157Z,300.50
2019-05-22T00:06:08.157Z,300.50
2019-05-22T00:06:13.177Z,302.03
2019-05-22T00:06:18.159Z,302.03
2019-05-22T00:06:23.164Z,303.40
2019-05-22T00:06:28.202Z,303.40
2019-05-22T00:06:33.203Z,304.62
2019-05-22T00:06:38.205Z,304.62
2019-05-22T00:06:43.204Z,301.13
2019-05-22T00:06:48.363Z,301.13
2019-05-22T00:06:53.211Z,297.94
2019-05-22T00:06:58.210Z,297.94
2019-05-22T00:07:03.213Z,295.03
2019-05-22T00:07:08.242Z,295.03
2019-05-22T00:07:13.210Z,297.14
2019-05-22T00:07:18.213Z,297.14
2019-05-22T00:07:23.213Z,294.32
2019-05-22T00:07:28.213Z,294.32
2019-05-22T00:07:33.215Z,291.76
2019-05-22T00:07:38.216Z,291.76
2019-05-22T00:07:43.216Z,289.46
2019-05-22T00:07:48.217Z,289.46
2019-05-22T00:07:53.218Z,287.41
2019-05-22T00:07:58.219Z,287.41
2019-05-22T00:08:03.223Z,290.28
2019-05-22T00:08:08.226Z,290.28
2019-05-22T00:08:13.223Z,292.87
2019-05-22T00:08:18.223Z,292.87
2019-05-22T00:08:23.224Z,290.46
2019-05-22T00:08:28.277Z,290.46
2019-05-22T00:08:33.225Z,293.04
2019-05-22T00:08:38.254Z,293.04
2019-05-22T00:08:43.228Z,295.36
2019-05-22T00:08:48.228Z,295.36
2019-05-22T00:08:53.229Z,292.70
2019-05-22T00:08:58.231Z,292.70
2019-05-22T00:09:03.232Z,290.31
2019-05-22T00:09:08.232Z,290.31
2019-05-22T00:09:13.233Z,288.16
2019-05-22T00:09:18.234Z,288.16
2019-05-22T00:09:23.235Z,286.24
2019-05-22T00:09:28.266Z,286.24
2019-05-22T00:09:33.487Z,289.22
2019-05-22T00:09:38.238Z,289.22
2019-05-22T00:09:43.246Z,287.19
2019-05-22T00:09:48.240Z,287.19
2019-05-22T00:09:53.242Z,285.37
2019-05-22T00:09:58.242Z,285.37
2019-05-22T00:10:03.492Z,279.77
2019-05-22T00:10:08.243Z,279.77
2019-05-22T00:10:13.244Z,278.69
2019-05-22T00:10:18.307Z,278.69
2019-05-22T00:10:23.248Z,277.74
2019-05-22T00:10:28.251Z,277.74
2019-05-22T00:10:33.258Z,276.90
2019-05-22T00:10:38.253Z,276.90
2019-05-22T00:10:43.251Z,276.16
2019-05-22T00:10:48.253Z,276.16
2019-05-22T00:10:53.258Z,275.50
2019-05-22T00:10:58.281Z,275.50
2019-05-22T00:11:03.266Z,279.47
2019-05-22T00:11:08.257Z,279.47
2019-05-22T00:11:13.257Z,278.45
2019-05-22T00:11:18.258Z,278.45
2019-05-22T00:11:23.261Z,273.31
2019-05-22T00:11:28.260Z,273.31
2019-05-22T00:11:33.862Z,277.62
2019-05-22T00:11:38.263Z,277.62
2019-05-22T00:11:43.262Z,276.77
2019-05-22T00:11:48.265Z,276.77
2019-05-22T00:11:53.265Z,276.03
2019-05-22T00:11:58.269Z,276.03
2019-05-22T00:12:03.267Z,280.06
2019-05-22T00:12:08.268Z,280.06
2019-05-22T00:12:13.269Z,283.76
2019-05-22T00:12:18.270Z,283.76
2019-05-22T00:12:23.271Z,282.24
2019-05-22T00:12:28.272Z,282.24
2019-05-22T00:12:34.144Z,280.90
2019-05-22T00:12:38.274Z,280.90
2019-05-22T00:12:43.279Z,279.71
2019-05-22T00:12:48.276Z,279.71
2019-05-22T00:12:53.276Z,283.37
2019-05-22T00:12:58.287Z,283.37
2019-05-22T00:13:03.280Z,281.92
2019-05-22T00:13:08.286Z,281.92
2019-05-22T00:13:13.287Z,280.63
2019-05-22T00:13:18.471Z,280.63
2019-05-22T00:13:23.282Z,279.49
2019-05-22T00:13:28.285Z,279.49
2019-05-22T00:13:33.285Z,278.47
2019-05-22T00:13:38.286Z,278.47
2019-05-22T00:13:43.489Z,273.36
2019-05-22T00:13:48.631Z,273.36
2019-05-22T00:14:03.688Z,270.00
2019-05-22T00:14:08.689Z,270.00
2019-05-22T00:14:13.690Z,293.75
2019-05-22T00:14:18.952Z,293.75
2019-05-22T00:14:23.691Z,301.96
2019-05-22T00:14:28.693Z,301.96
2019-05-22T00:14:33.693Z,292.37
2019-05-22T00:14:38.694Z,292.37
2019-05-22T00:14:43.720Z,298.18
2019-05-22T00:14:48.696Z,298.18
2019-05-22T00:14:53.697Z,291.92
2019-05-22T00:14:58.698Z,291.92
2019-05-22T00:15:03.713Z,296.57
2019-05-22T00:15:08.719Z,296.57
2019-05-22T00:15:13.701Z,291.69
2019-05-22T00:15:18.706Z,291.69
2019-05-22T00:15:23.704Z,287.96
2019-05-22T00:15:29.219Z,287.96
2019-05-22T00:15:33.707Z,285.05
2019-05-22T00:15:38.707Z,285.05
2019-05-22T00:15:43.709Z,276.78
2019-05-22T00:15:48.710Z,276.78
2019-05-22T00:15:53.710Z,282.47
2019-05-22T00:15:58.744Z,282.47
2019-05-22T00:16:03.712Z,280.59
2019-05-22T00:16:08.712Z,280.59
2019-05-22T00:16:13.715Z,279.07
2019-05-22T00:16:18.715Z,279.07
2019-05-22T00:16:23.715Z,277.82
2019-05-22T00:16:28.718Z,277.82
2019-05-22T00:16:33.717Z,276.78
2019-05-22T00:16:38.719Z,276.78
2019-05-22T00:16:43.722Z,275.90
2019-05-22T00:16:48.720Z,275.90
2019-05-22T00:16:53.722Z,275.16
2019-05-22T00:16:58.761Z,275.16
2019-05-22T00:17:03.724Z,274.53
2019-05-22T00:17:08.724Z,274.53
2019-05-22T00:17:13.726Z,273.99
2019-05-22T00:17:18.731Z,273.99
2019-05-22T00:17:23.731Z,273.52
2019-05-22T00:17:28.730Z,273.52
2019-05-22T00:17:33.740Z,278.03
2019-05-22T00:17:38.730Z,278.03
2019-05-22T00:17:43.891Z,277.09
2019-05-22T00:17:48.732Z,277.09
2019-05-22T00:17:53.734Z,281.23
2019-05-22T00:17:58.735Z,281.23
2019-05-22T00:18:03.735Z,279.94
2019-05-22T00:18:09.031Z,279.94
2019-05-22T00:18:13.738Z,278.81
2019-05-22T00:18:18.738Z,278.81
2019-05-22T00:18:23.795Z,277.82
2019-05-22T00:18:28.743Z,277.82
2019-05-22T00:18:33.741Z,281.75
2019-05-22T00:18:38.744Z,281.75
2019-05-22T00:18:43.743Z,285.33
2019-05-22T00:18:48.743Z,285.33
2019-05-22T00:18:53.744Z,283.62
2019-05-22T00:18:58.746Z,283.62
2019-05-22T00:19:03.749Z,282.12
2019-05-22T00:19:08.751Z,282.12
2019-05-22T00:19:13.749Z,280.79
2019-05-22T00:19:19.075Z,280.79
2019-05-22T00:19:23.834Z,284.37
2019-05-22T00:19:28.752Z,284.37
2019-05-22T00:19:33.761Z,278.66
2019-05-22T00:19:38.754Z,278.66
2019-05-22T00:19:44.379Z,282.61
2019-05-22T00:19:48.755Z,282.61
2019-05-22T00:19:53.757Z,281.17
2019-05-22T00:19:58.757Z,281.17
2019-05-22T00:20:03.758Z,284.84
2019-05-22T00:20:08.762Z,284.84
2019-05-22T00:20:13.761Z,283.18
2019-05-22T00:20:18.760Z,283.18
2019-05-22T00:20:23.763Z,281.71
2019-05-22T00:20:28.763Z,281.71
2019-05-22T00:20:33.763Z,280.41
2019-05-22T00:20:38.773Z,280.41
2019-05-22T00:20:43.766Z,279.27
2019-05-22T00:20:48.767Z,279.27
2019-05-22T00:20:53.770Z,278.26
2019-05-22T00:20:59.040Z,278.26
2019-05-22T00:21:03.773Z,277.37
2019-05-22T00:21:08.771Z,277.37
2019-05-22T00:21:13.772Z,276.58
2019-05-22T00:21:18.776Z,276.58
2019-05-22T00:21:23.774Z,275.88
2019-05-22T00:21:28.778Z,275.88
2019-05-22T00:21:33.775Z,279.80
2019-05-22T00:21:38.778Z,279.80
2019-05-22T00:21:43.789Z,283.42
2019-05-22T00:21:48.779Z,283.42
2019-05-22T00:21:53.781Z,281.97
2019-05-22T00:21:59.000Z,281.97
2019-05-22T00:22:03.781Z,285.39
2019-05-22T00:22:08.790Z,285.39
2019-05-22T00:22:13.784Z,283.74
2019-05-22T00:22:18.784Z,283.74
2019-05-22T00:22:23.787Z,286.99
2019-05-22T00:22:28.787Z,286.99
2019-05-22T00:22:33.788Z,289.94
2019-05-22T00:22:38.796Z,289.94
2019-05-22T00:22:43.790Z,287.81
2019-05-22T00:22:48.834Z,287.81
2019-05-22T00:22:53.792Z,290.67
2019-05-22T00:22:58.908Z,290.67
2019-05-22T00:23:03.794Z,288.47
2019-05-22T00:23:08.947Z,288.47
2019-05-22T00:23:13.796Z,286.50
2019-05-22T00:23:18.796Z,286.50
2019-05-22T00:23:24.181Z,289.48
2019-05-22T00:23:28.798Z,289.48
2019-05-22T00:23:33.799Z,287.40
2019-05-22T00:23:38.857Z,287.40
2019-05-22T00:23:43.802Z,285.55
2019-05-22T00:23:49.163Z,285.55
2019-05-22T00:23:53.804Z,283.89
2019-05-22T00:23:58.807Z,283.89
2019-05-22T00:24:03.805Z,282.42
2019-05-22T00:24:08.806Z,282.42
2019-05-22T00:24:13.807Z,275.62
2019-05-22T00:24:18.810Z,275.62
2019-05-22T00:24:23.810Z,274.95
2019-05-22T00:24:28.812Z,274.95
2019-05-22T00:24:33.822Z,274.37
2019-05-22T00:24:38.821Z,274.37
2019-05-22T00:24:43.965Z,273.87
2019-05-22T00:24:48.815Z,273.87
2019-05-22T00:24:53.815Z,278.25
2019-05-22T00:24:59.053Z,278.25
2019-05-22T00:25:03.890Z,282.25
2019-05-22T00:25:09.049Z,282.25
2019-05-22T00:25:14.199Z,280.85
2019-05-22T00:25:18.819Z,280.85
2019-05-22T00:25:23.820Z,279.63
2019-05-22T00:25:28.822Z,279.63
2019-05-22T00:25:33.822Z,278.55
2019-05-22T00:25:38.824Z,278.55
2019-05-22T00:25:43.827Z,277.61
2019-05-22T00:25:48.826Z,277.61
2019-05-22T00:25:53.827Z,276.78
2019-05-22T00:25:58.829Z,276.78
2019-05-22T00:26:03.828Z,276.04
2019-05-22T00:26:08.829Z,276.04
2019-05-22T00:26:13.830Z,280.01
2019-05-22T00:26:18.830Z,280.01
2019-05-22T00:26:23.844Z,278.93
2019-05-22T00:26:28.835Z,278.93
2019-05-22T00:26:33.835Z,277.96
2019-05-22T00:26:38.902Z,277.96
2019-05-22T00:26:43.843Z,281.75
2019-05-22T00:26:48.842Z,281.75
2019-05-22T00:26:53.843Z,285.22
2019-05-22T00:26:58.842Z,285.22
2019-05-22T00:27:03.868Z,288.37
2019-05-22T00:27:08.936Z,288.37
2019-05-22T00:27:13.842Z,286.38
2019-05-22T00:27:18.844Z,286.38
2019-05-22T00:27:23.850Z,284.61
2019-05-22T00:27:29.276Z,284.61
2019-05-22T00:27:33.848Z,283.04
2019-05-22T00:27:38.862Z,283.04
2019-05-22T00:27:43.849Z,281.65
2019-05-22T00:27:48.854Z,281.65
2019-05-22T00:27:53.852Z,285.08
2019-05-22T00:27:58.853Z,285.08
2019-05-22T00:28:03.886Z,288.20
2019-05-22T00:28:08.854Z,288.20
2019-05-22T00:28:13.855Z,286.26
2019-05-22T00:28:18.855Z,286.26
2019-05-22T00:28:23.856Z,284.52
2019-05-22T00:28:28.857Z,284.52
2019-05-22T00:28:33.923Z,282.97
2019-05-22T00:28:38.860Z,282.97
2019-05-22T00:28:43.926Z,281.59
2019-05-22T00:28:48.862Z,281.59
2019-05-22T00:28:53.861Z,280.36
2019-05-22T00:28:58.865Z,280.36
2019-05-22T00:29:03.865Z,279.27
2019-05-22T00:29:08.887Z,279.27
2019-05-22T00:29:13.894Z,278.30
2019-05-22T00:29:18.893Z,278.30
2019-05-22T00:29:23.896Z,277.43
2019-05-22T00:29:28.893Z,277.43
2019-05-22T00:29:33.892Z,276.65
2019-05-22T00:29:38.893Z,276.65
2019-05-22T00:29:44.040Z,275.96
2019-05-22T00:29:48.895Z,275.96
2019-05-22T00:29:53.895Z,275.34
2019-05-22T00:29:58.915Z,275.34
2019-05-22T00:30:03.902Z,274.79
2019-05-22T00:30:08.899Z,274.79
2019-05-22T00:30:13.952Z,274.30
2019-05-22T00:30:18.901Z,274.30
2019-05-22T00:30:23.902Z,273.85
2019-05-22T00:30:28.903Z,273.85
2019-05-22T00:30:33.904Z,277.82
2019-05-22T00:30:38.925Z,277.82
2019-05-22T00:30:43.905Z,277.00
2019-05-22T00:30:48.908Z,277.00
2019-05-22T00:30:53.908Z,276.27
2019-05-22T00:30:58.908Z,276.27
2019-05-22T00:31:03.909Z,275.62
2019-05-22T00:31:08.910Z,275.62
2019-05-22T00:31:13.911Z,269.53
2019-05-22T00:31:19.033Z,269.53
2019-05-22T00:31:23.913Z,269.58
2019-05-22T00:31:28.916Z,269.58
2019-05-22T00:31:33.915Z,269.63
2019-05-22T00:31:38.951Z,269.63
2019-05-22T00:31:44.269Z,269.67
2019-05-22T00:31:49.122Z,269.67
2019-05-22T00:31:53.918Z,269.70
2019-05-22T00:31:58.923Z,269.70
2019-05-22T00:32:03.922Z,269.73
2019-05-22T00:32:08.924Z,269.73
2019-05-22T00:32:14.153Z,274.16
2019-05-22T00:32:18.925Z,274.16
2019-05-22T00:32:23.927Z,278.30
2019-05-22T00:32:28.946Z,278.30
2019-05-22T00:32:33.927Z,277.39
2019-05-22T00:32:38.930Z,277.39
2019-05-22T00:32:43.930Z,276.59
2019-05-22T00:32:48.930Z,276.59
2019-05-22T00:32:53.931Z,275.89
2019-05-22T00:32:58.933Z,275.89
2019-05-22T00:33:03.933Z,279.83
2019-05-22T00:33:08.934Z,279.83
2019-05-22T00:33:13.936Z,278.77
2019-05-22T00:33:18.938Z,278.77
2019-05-22T00:33:23.937Z,277.83
2019-05-22T00:33:28.937Z,277.83
2019-05-22T00:33:33.940Z,281.60
2019-05-22T00:33:38.940Z,281.60
2019-05-22T00:33:43.960Z,280.36
2019-05-22T00:33:48.942Z,280.36
2019-05-22T00:33:53.942Z,279.25
2019-05-22T00:33:58.945Z,279.25
2019-05-22T00:34:03.952Z,278.27
2019-05-22T00:34:08.947Z,278.27
2019-05-22T00:34:13.947Z,277.39
2019-05-22T00:34:18.949Z,277.39
2019-05-22T00:34:23.948Z,276.62
2019-05-22T00:34:29.168Z,276.62
2019-05-22T00:34:33.951Z,275.92
2019-05-22T00:34:38.953Z,275.92
2019-05-22T00:34:43.953Z,275.30
2019-05-22T00:34:48.954Z,275.30
2019-05-22T00:34:53.956Z,274.75
2019-05-22T00:34:58.956Z,274.75
2019-05-22T00:35:03.959Z,274.26
2019-05-22T00:35:08.957Z,274.26
2019-05-22T00:35:13.963Z,278.22
2019-05-22T00:35:19.023Z,278.22
2019-05-22T00:35:23.968Z,281.90
2019-05-22T00:35:28.961Z,281.90
2019-05-22T00:35:33.962Z,280.64
2019-05-22T00:35:38.964Z,280.64
2019-05-22T00:35:43.966Z,284.12
2019-05-22T00:35:48.965Z,284.12
2019-05-22T00:35:53.966Z,287.31
2019-05-22T00:35:58.967Z,287.31
2019-05-22T00:36:03.970Z,290.21
2019-05-22T00:36:09.082Z,290.21
2019-05-22T00:36:14.102Z,288.06
2019-05-22T00:36:19.119Z,288.06
2019-05-22T00:36:24.227Z,286.14
2019-05-22T00:36:28.978Z,286.14
2019-05-22T00:36:33.973Z,284.43
2019-05-22T00:36:38.975Z,284.43
2019-05-22T00:36:43.976Z,287.58
2019-05-22T00:36:48.976Z,287.58
2019-05-22T00:36:53.981Z,285.72
2019-05-22T00:36:58.978Z,285.72
2019-05-22T00:37:03.984Z,288.75
2019-05-22T00:37:09.242Z,288.75
2019-05-22T00:37:13.982Z,286.76
2019-05-22T00:37:18.983Z,286.76
2019-05-22T00:37:23.988Z,284.99
2019-05-22T00:37:28.984Z,284.99
2019-05-22T00:37:33.985Z,283.40
2019-05-22T00:37:38.988Z,283.40
2019-05-22T00:37:43.994Z,281.98
2019-05-22T00:37:48.990Z,281.98
2019-05-22T00:37:53.989Z,280.72
2019-05-22T00:37:59.309Z,280.72
2019-05-22T00:38:03.996Z,279.60
2019-05-22T00:38:08.993Z,279.60
2019-05-22T00:38:13.994Z,278.59
2019-05-22T00:38:19.000Z,278.59
2019-05-22T00:38:23.999Z,277.69
2019-05-22T00:38:28.997Z,277.69
2019-05-22T00:38:34.000Z,276.89
2019-05-22T00:38:38.998Z,276.89
2019-05-22T00:38:44.000Z,276.18
2019-05-22T00:38:49.015Z,276.18
2019-05-22T00:38:54.077Z,275.54
2019-05-22T00:38:59.006Z,275.54
2019-05-22T00:39:04.015Z,279.38
2019-05-22T00:39:09.010Z,279.38
2019-05-22T00:39:14.027Z,282.95
2019-05-22T00:39:19.017Z,282.95
2019-05-22T00:39:24.043Z,281.58
2019-05-22T00:39:29.017Z,281.58
2019-05-22T00:39:34.014Z,280.37
2019-05-22T00:39:39.014Z,280.37
2019-05-22T00:39:44.012Z,283.85
2019-05-22T00:39:49.013Z,283.85
2019-05-22T00:39:54.019Z,287.05
2019-05-22T00:39:59.019Z,287.05
2019-05-22T00:40:04.101Z,285.25
2019-05-22T00:40:09.021Z,285.25
2019-05-22T00:40:14.018Z,288.32
2019-05-22T00:40:19.018Z,288.32
2019-05-22T00:40:24.021Z,286.38
2019-05-22T00:40:29.025Z,286.38
2019-05-22T00:40:34.021Z,289.35
2019-05-22T00:40:39.021Z,289.35
2019-05-22T00:40:44.023Z,292.03
2019-05-22T00:40:49.025Z,292.03
2019-05-22T00:40:54.025Z,289.71
2019-05-22T00:40:59.025Z,289.71
2019-05-22T00:41:04.030Z,287.62
2019-05-22T00:41:09.033Z,287.62
2019-05-22T00:41:14.029Z,285.76
2019-05-22T00:41:19.039Z,285.76
2019-05-22T00:41:24.034Z,284.09
2019-05-22T00:41:29.031Z,284.09
2019-05-22T00:41:34.032Z,282.60
2019-05-22T00:41:39.033Z,282.60
2019-05-22T00:41:44.034Z,281.28
2019-05-22T00:41:49.035Z,281.28
2019-05-22T00:41:54.037Z,280.09
2019-05-22T00:41:59.038Z,280.09
2019-05-22T00:42:04.245Z,279.03
2019-05-22T00:42:09.041Z,279.03
2019-05-22T00:42:14.041Z,282.63
2019-05-22T00:42:19.043Z,282.63
2019-05-22T00:42:24.043Z,281.30
2019-05-22T00:42:29.043Z,281.30
2019-05-22T00:42:34.045Z,284.71
2019-05-22T00:42:39.045Z,284.71
2019-05-22T00:42:44.047Z,287.83
2019-05-22T00:42:49.053Z,287.83
2019-05-22T00:42:54.048Z,290.66
2019-05-22T00:42:59.050Z,290.66
2019-05-22T00:43:04.051Z,288.48
2019-05-22T00:43:09.051Z,288.48
2019-05-22T00:43:14.220Z,286.52
2019-05-22T00:43:19.055Z,286.52
2019-05-22T00:43:24.054Z,289.48
2019-05-22T00:43:29.056Z,289.48
2019-05-22T00:43:34.056Z,287.42
2019-05-22T00:43:39.058Z,287.42
2019-05-22T00:43:44.228Z,285.57
2019-05-22T00:43:49.060Z,285.57
2019-05-22T00:43:54.061Z,283.93
2019-05-22T00:43:59.273Z,283.93
2019-05-22T00:44:04.062Z,287.11
2019-05-22T00:44:09.063Z,287.11
2019-05-22T00:44:14.664Z,285.30
2019-05-22T00:44:19.065Z,285.30
2019-05-22T00:44:24.066Z,288.37
2019-05-22T00:44:29.067Z,288.37
2019-05-22T00:44:34.068Z,286.43
2019-05-22T00:44:39.069Z,286.43
2019-05-22T00:44:44.070Z,284.69
2019-05-22T00:44:49.072Z,284.69
2019-05-22T00:44:54.611Z,283.14
2019-05-22T00:44:59.073Z,283.14
2019-05-22T00:45:04.078Z,281.75
2019-05-22T00:45:09.075Z,281.75
2019-05-22T00:45:14.082Z,285.13
2019-05-22T00:45:19.080Z,285.13
2019-05-22T00:45:24.079Z,283.53
2019-05-22T00:45:29.079Z,283.53
2019-05-22T00:45:34.081Z,282.10
2019-05-22T00:45:39.080Z,282.10
2019-05-22T00:45:44.084Z,285.44
2019-05-22T00:45:49.083Z,285.44
2019-05-22T00:45:54.088Z,283.81
2019-05-22T00:45:59.089Z,283.81
2019-05-22T00:46:04.086Z,287.01
2019-05-22T00:46:09.089Z,287.01
2019-05-22T00:46:14.088Z,289.92
2019-05-22T00:46:19.093Z,289.92
2019-05-22T00:46:24.102Z,287.81
2019-05-22T00:46:29.091Z,287.81
2019-05-22T00:46:34.092Z,285.93
2019-05-22T00:46:39.093Z,285.93
2019-05-22T00:46:44.094Z,284.24
2019-05-22T00:46:49.095Z,284.24
2019-05-22T00:46:54.095Z,282.74
2019-05-22T00:46:59.110Z,282.74
2019-05-22T00:47:04.098Z,281.40
2019-05-22T00:47:09.097Z,281.40
2019-05-22T00:47:14.161Z,280.20
2019-05-22T00:47:19.100Z,280.20
2019-05-22T00:47:24.102Z,279.13
2019-05-22T00:47:29.104Z,279.13
2019-05-22T00:47:34.103Z,278.18
2019-05-22T00:47:39.108Z,278.18
2019-05-22T00:47:44.105Z,277.33
2019-05-22T00:47:49.105Z,277.33
2019-05-22T00:47:54.107Z,281.04
2019-05-22T00:47:59.107Z,281.04
2019-05-22T00:48:04.109Z,279.88
2019-05-22T00:48:09.256Z,279.88
2019-05-22T00:48:14.110Z,283.41
2019-05-22T00:48:19.111Z,283.41
2019-05-22T00:48:24.768Z,281.99
2019-05-22T00:48:29.121Z,281.99
2019-05-22T00:48:34.115Z,280.73
2019-05-22T00:48:39.117Z,280.73
2019-05-22T00:48:44.206Z,284.19
2019-05-22T00:48:49.119Z,284.19
2019-05-22T00:48:54.118Z,287.36
2019-05-22T00:48:59.119Z,287.36
2019-05-22T00:49:04.125Z,285.52
2019-05-22T00:49:09.129Z,285.52
2019-05-22T00:49:14.551Z,283.88
2019-05-22T00:49:19.124Z,283.88
2019-05-22T00:49:24.125Z,282.41
2019-05-22T00:49:29.127Z,282.41
2019-05-22T00:49:34.127Z,281.11
2019-05-22T00:49:39.132Z,281.11
2019-05-22T00:49:44.386Z,284.53
2019-05-22T00:49:49.132Z,284.53
2019-05-22T00:49:54.133Z,283.00
2019-05-22T00:49:59.132Z,283.00
2019-05-22T00:50:04.138Z,276.23
2019-05-22T00:50:09.134Z,276.23
2019-05-22T00:50:14.146Z,280.59
2019-05-22T00:50:19.152Z,280.59
2019-05-22T00:50:24.499Z,284.51
2019-05-22T00:50:29.151Z,284.51
2019-05-22T00:50:34.149Z,282.80
2019-05-22T00:50:39.155Z,282.80
2019-05-22T00:50:44.151Z,281.31
2019-05-22T00:50:49.155Z,281.31
2019-05-22T00:50:54.154Z,280.02
2019-05-22T00:51:00.134Z,280.02
2019-05-22T00:51:04.155Z,278.88
2019-05-22T00:51:09.157Z,278.88
2019-05-22T00:51:14.160Z,282.75
2019-05-22T00:51:19.159Z,282.75
2019-05-22T00:51:24.159Z,286.26
2019-05-22T00:51:29.160Z,286.26
2019-05-22T00:51:34.495Z,289.41
2019-05-22T00:51:39.163Z,289.41
2019-05-22T00:51:44.222Z,287.25
2019-05-22T00:51:49.170Z,287.25
2019-05-22T00:51:54.165Z,285.34
2019-05-22T00:51:59.167Z,285.34
2019-05-22T00:52:04.169Z,283.65
2019-05-22T00:52:09.168Z,283.65
2019-05-22T00:52:14.175Z,282.16
2019-05-22T00:52:19.174Z,282.16
2019-05-22T00:52:24.327Z,280.84
2019-05-22T00:52:29.180Z,280.84
2019-05-22T00:52:34.174Z,279.66
2019-05-22T00:52:39.174Z,279.66
2019-05-22T00:52:44.174Z,283.30
2019-05-22T00:52:49.176Z,283.30
2019-05-22T00:52:54.177Z,281.87
2019-05-22T00:52:59.178Z,281.87
2019-05-22T00:53:04.203Z,285.30
2019-05-22T00:53:09.179Z,285.30
2019-05-22T00:53:14.183Z,283.66
2019-05-22T00:53:19.184Z,283.66
2019-05-22T00:53:24.185Z,282.19
2019-05-22T00:53:29.187Z,282.19
2019-05-22T00:53:34.185Z,280.89
2019-05-22T00:53:39.189Z,280.89
2019-05-22T00:53:44.191Z,284.38
2019-05-22T00:53:49.192Z,284.38
2019-05-22T00:53:54.190Z,282.84
2019-05-22T00:53:59.192Z,282.84
2019-05-22T00:54:04.190Z,281.47
2019-05-22T00:54:09.191Z,281.47
2019-05-22T00:54:14.193Z,280.26
2019-05-22T00:54:19.193Z,280.26
2019-05-22T00:54:24.195Z,279.17
2019-05-22T00:54:29.242Z,279.17
2019-05-22T00:54:34.196Z,282.78
2019-05-22T00:54:39.210Z,282.78
2019-05-22T00:54:44.203Z,281.43
2019-05-22T00:54:49.200Z,281.43
2019-05-22T00:54:54.284Z,284.85
2019-05-22T00:54:59.221Z,284.85
2019-05-22T00:55:04.203Z,283.27
2019-05-22T00:55:09.204Z,283.27
2019-05-22T00:55:14.204Z,286.53
2019-05-22T00:55:19.205Z,286.53
2019-05-22T00:55:24.206Z,289.50
2019-05-22T00:55:29.207Z,289.50
2019-05-22T00:55:34.208Z,292.18
2019-05-22T00:55:39.211Z,292.18
2019-05-22T00:55:44.210Z,294.60
2019-05-22T00:55:49.616Z,294.60
2019-05-22T00:55:54.214Z,292.01
2019-05-22T00:55:59.213Z,292.01
2019-05-22T00:56:04.223Z,294.44
2019-05-22T00:56:09.216Z,294.44
2019-05-22T00:56:14.288Z,291.86
2019-05-22T00:56:19.217Z,291.86
2019-05-22T00:56:24.220Z,289.55
2019-05-22T00:56:29.221Z,289.55
2019-05-22T00:56:34.220Z,287.48
2019-05-22T00:56:39.221Z,287.48
2019-05-22T00:56:44.224Z,285.62
2019-05-22T00:56:49.224Z,285.62
2019-05-22T00:56:54.224Z,283.97
2019-05-22T00:56:59.225Z,283.97
2019-05-22T00:57:04.227Z,282.49
2019-05-22T00:57:09.238Z,282.49
2019-05-22T00:57:14.228Z,285.81
2019-05-22T00:57:19.232Z,285.81
2019-05-22T00:57:24.230Z,284.13
2019-05-22T00:57:29.230Z,284.13
2019-05-22T00:57:34.232Z,282.64
2019-05-22T00:57:39.235Z,282.64
2019-05-22T00:57:44.234Z,281.31
2019-05-22T00:57:49.236Z,281.31
2019-05-22T00:57:54.370Z,284.72
2019-05-22T00:57:59.275Z,284.72
2019-05-22T00:58:04.237Z,283.16
2019-05-22T00:58:09.238Z,283.16
2019-05-22T00:58:14.241Z,281.78
2019-05-22T00:58:19.240Z,281.78
2019-05-22T00:58:24.242Z,280.54
2019-05-22T00:58:29.241Z,280.54
2019-05-22T00:58:34.243Z,279.43
2019-05-22T00:58:39.244Z,279.43
2019-05-22T00:58:44.246Z,278.44
2019-05-22T00:58:49.245Z,278.44
2019-05-22T00:58:54.250Z,277.56
2019-05-22T00:58:59.249Z,277.56
2019-05-22T00:59:04.249Z,281.27
2019-05-22T00:59:09.250Z,281.27
2019-05-22T00:59:14.251Z,280.08
2019-05-22T00:59:19.252Z,280.08
2019-05-22T00:59:24.253Z,279.03
2019-05-22T00:59:29.254Z,279.03
2019-05-22T00:59:34.426Z,278.08
2019-05-22T00:59:39.258Z,278.08
2019-05-22T00:59:44.257Z,277.24
2019-05-22T00:59:49.259Z,277.24
2019-05-22T00:59:54.258Z,276.49
2019-05-22T00:59:59.260Z,276.49
2019-05-22T01:00:04.263Z,275.82
2019-05-22T01:00:09.266Z,275.82
2019-05-22T01:00:14.264Z,275.22
2019-05-22T01:00:19.274Z,275.22
2019-05-22T01:00:24.265Z,274.68
2019-05-22T01:00:29.268Z,274.68
2019-05-22T01:00:34.268Z,274.20
2019-05-22T01:00:39.268Z,274.20
2019-05-22T01:00:44.275Z,273.77
2019-05-22T01:00:49.269Z,273.77
2019-05-22T01:00:54.276Z,273.38
2019-05-22T01:00:59.272Z,273.38
2019-05-22T01:01:04.285Z,277.36
2019-05-22T01:01:09.275Z,277.36
2019-05-22T01:01:14.274Z,281.08
2019-05-22T01:01:19.275Z,281.08
2019-05-22T01:01:24.852Z,279.92
2019-05-22T01:01:29.277Z,279.92
2019-05-22T01:01:34.278Z,278.88
2019-05-22T01:01:39.279Z,278.88
2019-05-22T01:01:44.286Z,277.95
2019-05-22T01:01:49.282Z,277.95
2019-05-22T01:01:54.289Z,277.12
2019-05-22T01:01:59.283Z,277.12
2019-05-22T01:02:04.284Z,276.39
2019-05-22T01:02:09.285Z,276.39
2019-05-22T01:02:14.287Z,280.17
2019-05-22T01:02:19.290Z,280.17
2019-05-22T01:02:24.294Z,279.10
2019-05-22T01:02:29.899Z,279.10
2019-05-22T01:02:34.776Z,278.15